createdAt,value
2022-09-15T16:01:51.817Z,103.33
2022-09-15T16:03:24.218Z,89.00
2022-09-15T16:04:55.845Z,95.50
2022-09-15T16:06:27.618Z,90.75
2022-09-15T16:08:06.536Z,89.00
2022-09-15T16:09:38.232Z,95.50
2022-09-15T16:11:11.983Z,88.50
2022-09-15T16:12:43.672Z,96.50
2022-09-15T16:14:15.338Z,95.50
2022-09-15T16:15:47.224Z,91.50
2022-09-15T16:17:18.986Z,96.25
2022-09-15T16:18:50.872Z,85.25
2022-09-15T16:20:24.938Z,83.00
2022-09-15T16:21:57.485Z,78.75
2022-09-15T16:23:29.470Z,79.25
2022-09-15T16:25:01.323Z,77.75
2022-09-15T16:26:35.760Z,81.25
2022-09-15T16:28:07.815Z,81.50
2022-09-15T16:29:39.841Z,75.50
2022-09-15T16:31:12.902Z,77.00
2022-09-15T16:32:44.767Z,82.75
2022-09-15T16:34:17.711Z,78.25
2022-09-15T16:36:08.716Z,75.75
2022-09-15T16:37:40.366Z,82.25
2022-09-15T16:39:12.397Z,79.50
2022-09-15T16:40:44.122Z,81.00
2022-09-15T16:42:15.781Z,74.50
2022-09-15T16:43:47.528Z,74.00
2022-09-15T16:45:23.681Z,73.80
2022-09-15T16:46:55.435Z,74.00
2022-09-15T16:48:27.313Z,71.00
2022-09-15T16:49:59.041Z,110.25
2022-09-15T16:51:31.864Z,117.00
2022-09-15T16:53:04.231Z,82.75
2022-09-15T16:54:35.925Z,86.25
2022-09-15T16:56:10.307Z,73.50
2022-09-15T16:57:42.442Z,101.00
2022-09-15T16:59:14.177Z,126.60
2022-09-15T17:00:48.237Z,88.25
2022-09-15T17:02:21.143Z,88.75
2022-09-15T17:03:52.962Z,91.50
2022-09-15T17:05:26.333Z,92.75
2022-09-15T17:06:58.194Z,94.25
2022-09-15T17:08:31.731Z,85.75
2022-09-15T17:10:03.687Z,101.25
2022-09-15T17:11:35.380Z,85.75
2022-09-15T17:13:07.407Z,78.00
2022-09-15T17:14:39.127Z,93.00
2022-09-15T17:16:11.128Z,86.25
2022-09-15T17:17:42.847Z,79.00
2022-09-15T17:19:14.620Z,79.50
2022-09-15T17:20:47.250Z,80.50
2022-09-15T17:22:18.977Z,81.75
2022-09-15T17:23:50.824Z,83.50
2022-09-15T17:25:34.899Z,95.25
2022-09-15T17:27:06.731Z,83.00
2022-09-15T17:28:38.509Z,106.25
2022-09-15T17:30:11.019Z,82.50
2022-09-15T17:31:42.725Z,79.00
2022-09-15T17:33:14.810Z,77.00
2022-09-15T17:34:46.652Z,93.25
2022-09-15T17:36:18.604Z,86.75
2022-09-15T17:37:51.593Z,77.75
2022-09-15T17:39:23.602Z,78.25
2022-09-15T17:40:55.647Z,73.75
2022-09-15T17:42:27.632Z,72.00
2022-09-15T17:44:00.189Z,78.25
2022-09-15T17:45:32.313Z,73.00
2022-09-15T17:47:05.487Z,75.00
2022-09-15T17:48:38.964Z,73.25
2022-09-15T17:50:11.036Z,73.80
2022-09-15T17:51:42.790Z,67.20
2022-09-15T17:53:15.375Z,69.80
2022-09-15T17:54:47.225Z,78.25
2022-09-15T17:56:18.995Z,79.50
2022-09-15T17:57:51.221Z,82.50
2022-09-15T17:59:23.161Z,73.50
2022-09-15T18:00:54.794Z,79.75
2022-09-15T18:02:26.565Z,80.00
2022-09-15T18:03:58.393Z,78.75
2022-09-15T18:05:32.270Z,77.50
2022-09-15T18:07:04.000Z,79.50
2022-09-15T18:08:38.762Z,83.00
2022-09-15T18:10:11.474Z,77.25
2022-09-15T18:11:43.158Z,78.50
2022-09-15T18:13:20.316Z,75.75
2022-09-15T18:14:52.279Z,77.75
2022-09-15T18:16:24.181Z,79.75
2022-09-15T18:17:57.688Z,74.50
2022-09-15T18:19:29.569Z,75.00
2022-09-15T18:21:01.451Z,74.25
2022-09-15T18:22:33.185Z,75.75
2022-09-15T18:24:06.755Z,77.50
2022-09-15T18:25:38.652Z,74.75
2022-09-15T18:27:10.523Z,78.33
2022-09-15T18:28:42.329Z,78.00
2022-09-15T18:30:14.238Z,77.50
2022-09-15T18:31:46.063Z,422.25
2022-09-15T18:33:20.249Z,301.25
2022-09-15T18:34:52.796Z,271.67
2022-09-15T18:36:24.615Z,200.50
2022-09-15T18:37:57.907Z,160.25
2022-09-15T18:39:30.242Z,108.80
2022-09-15T18:41:02.341Z,144.00
2022-09-15T18:42:34.100Z,127.40
2022-09-15T18:44:05.757Z,105.50
2022-09-15T18:45:37.457Z,106.00
2022-09-15T18:47:09.267Z,90.25
2022-09-15T18:48:41.234Z,114.75
2022-09-15T18:50:13.691Z,90.25
2022-09-15T18:51:51.452Z,98.50
2022-09-15T18:53:23.834Z,94.75
2022-09-15T18:54:55.504Z,94.75
2022-09-15T18:56:27.192Z,95.25
2022-09-15T18:58:00.961Z,86.00
2022-09-15T18:59:33.055Z,93.50
2022-09-15T19:01:05.162Z,81.75
2022-09-15T19:02:37.045Z,92.50
2022-09-15T19:04:09.655Z,89.00
2022-09-15T19:05:42.902Z,88.00
2022-09-15T19:07:14.659Z,90.50
2022-09-15T19:08:46.460Z,95.50
2022-09-15T19:10:18.735Z,97.00
2022-09-15T19:11:50.439Z,88.75
2022-09-15T19:13:22.199Z,81.50
2022-09-15T19:14:54.215Z,83.00
2022-09-15T19:16:34.644Z,98.50
2022-09-15T19:18:12.125Z,102.75
2022-09-15T19:19:44.031Z,101.50
2022-09-15T19:21:15.968Z,100.75
2022-09-15T19:22:47.950Z,107.00
2022-09-15T19:24:19.764Z,83.75
2022-09-15T19:25:51.460Z,97.75
2022-09-15T19:27:23.311Z,91.00
2022-09-15T19:28:57.882Z,125.80
2022-09-15T19:30:29.650Z,126.20
2022-09-15T19:32:06.700Z,112.25
2022-09-15T19:33:38.932Z,112.00
2022-09-15T19:35:11.415Z,113.25
2022-09-15T19:36:43.189Z,113.60
2022-09-15T19:38:14.933Z,108.75
2022-09-15T19:39:47.426Z,115.50
2022-09-15T19:41:19.315Z,118.25
2022-09-15T19:42:51.248Z,117.50
2022-09-15T19:44:23.046Z,111.00
2022-09-15T19:45:54.850Z,127.20
2022-09-15T19:47:26.801Z,109.80
2022-09-15T19:48:58.922Z,131.40
2022-09-15T19:50:31.170Z,136.80
2022-09-15T19:52:03.743Z,144.80
2022-09-15T19:53:35.679Z,134.60
2022-09-15T19:55:09.695Z,129.20
2022-09-15T19:56:42.532Z,109.00
2022-09-15T19:58:14.732Z,137.40
2022-09-15T19:59:46.546Z,134.60
2022-09-15T20:01:18.652Z,129.60
2022-09-15T20:02:50.457Z,136.20
2022-09-15T20:04:22.154Z,136.00
2022-09-15T20:05:58.034Z,142.20
2022-09-15T20:07:29.722Z,238.75
2022-09-15T20:09:01.705Z,406.25
2022-09-15T20:10:33.431Z,269.67
2022-09-15T20:12:05.420Z,241.67
2022-09-15T20:13:41.449Z,176.00
2022-09-15T20:15:13.298Z,161.50
2022-09-15T20:16:45.068Z,216.25
2022-09-15T20:18:17.326Z,165.25
2022-09-15T20:19:49.085Z,171.00
2022-09-15T20:21:45.893Z,168.25
2022-09-15T20:23:17.708Z,158.50
2022-09-15T20:24:49.702Z,145.75
2022-09-15T20:26:21.438Z,149.25
2022-09-15T20:27:53.645Z,148.50
2022-09-15T20:29:25.440Z,146.00
2022-09-15T20:31:03.951Z,147.00
2022-09-15T20:32:35.693Z,151.00
2022-09-15T20:34:07.401Z,147.50
2022-09-15T20:35:39.198Z,156.50
2022-09-15T20:37:11.112Z,134.80
2022-09-15T20:38:43.289Z,128.00
2022-09-15T20:40:15.326Z,146.75
2022-09-15T20:41:47.088Z,135.75
2022-09-15T20:43:18.737Z,132.50
2022-09-15T20:44:50.392Z,135.00
2022-09-15T20:46:22.772Z,141.20
2022-09-15T20:47:54.513Z,139.75
2022-09-15T20:49:26.226Z,125.60
2022-09-15T20:51:07.927Z,115.80
2022-09-15T20:52:40.899Z,138.00
2022-09-15T20:54:12.640Z,130.20
2022-09-15T20:55:50.493Z,134.40
2022-09-15T20:57:22.381Z,142.00
2022-09-15T20:58:55.448Z,139.20
2022-09-15T21:00:30.627Z,119.00
2022-09-15T21:02:06.070Z,125.00
2022-09-15T21:03:39.065Z,114.50
2022-09-15T21:05:11.268Z,135.00
2022-09-15T21:06:42.984Z,133.20
2022-09-15T21:08:14.716Z,119.40
2022-09-15T21:09:48.631Z,124.80
2022-09-15T21:11:21.119Z,120.40
2022-09-15T21:12:52.970Z,114.60
2022-09-15T21:14:24.634Z,120.80
2022-09-15T21:15:58.072Z,106.00
2022-09-15T21:17:29.770Z,124.75
2022-09-15T21:19:01.956Z,125.00
2022-09-15T21:20:33.942Z,102.75
2022-09-15T21:22:06.186Z,120.50
2022-09-15T21:23:45.471Z,115.50
2022-09-15T21:25:17.244Z,110.75
2022-09-15T21:27:07.161Z,112.50
2022-09-15T21:28:38.992Z,103.00
2022-09-15T21:30:11.262Z,108.75
2022-09-15T21:31:43.247Z,113.75
2022-09-15T21:33:15.057Z,103.00
2022-09-15T21:34:47.403Z,107.75
2022-09-15T21:36:23.889Z,108.25
2022-09-15T21:37:58.807Z,117.00
2022-09-15T21:39:32.464Z,103.25
2022-09-15T21:41:04.691Z,83.50
2022-09-15T21:42:36.848Z,122.50
2022-09-15T21:44:09.347Z,118.75
2022-09-15T21:45:41.124Z,134.20
2022-09-15T21:47:13.067Z,112.25
2022-09-15T21:48:47.075Z,119.75
2022-09-15T21:50:18.964Z,112.00
2022-09-15T21:51:50.708Z,112.50
2022-09-15T21:53:22.484Z,101.25
2022-09-15T21:54:54.332Z,98.50
2022-09-15T21:56:27.394Z,110.75
2022-09-15T21:57:59.312Z,101.50
2022-09-15T21:59:31.008Z,99.50
2022-09-15T22:01:13.789Z,111.25
2022-09-15T22:02:45.507Z,103.50
2022-09-15T22:04:17.348Z,101.50
2022-09-15T22:05:49.918Z,111.50
2022-09-15T22:07:21.789Z,100.00
2022-09-15T22:08:54.721Z,106.00
2022-09-15T22:10:26.668Z,111.50
2022-09-15T22:11:58.411Z,110.50
2022-09-15T22:13:30.162Z,101.25
2022-09-15T22:15:01.981Z,114.25
2022-09-15T22:16:34.524Z,102.25
2022-09-15T22:18:07.406Z,103.75
2022-09-15T22:19:39.195Z,109.25
2022-09-15T22:21:11.393Z,102.50
2022-09-15T22:22:44.334Z,102.75
2022-09-15T22:24:16.391Z,97.50
2022-09-15T22:25:48.116Z,104.75
2022-09-15T22:27:19.834Z,106.50
2022-09-15T22:28:51.715Z,108.00
2022-09-15T22:30:23.467Z,104.75
2022-09-15T22:31:55.273Z,111.75
2022-09-15T22:33:27.508Z,106.50
2022-09-15T22:34:59.261Z,134.00
